Time;durP1;ratioP1;P1;durP2;ratioP2;P2;SDS_P1;SDS_P2;PMS_P1;PMS_P2;Temp;Humidity;BMP_temperature;BMP_pressure;BME280_temperature;BME280_humidity;BME280_pressure;Samples;Min_cycle;Max_cycle;Signal;HPM_P1;HPM_P2
2022/12/08 00:00:21;;;;;;;29.90;18.00;;;;;;;1.54;95.39;98279.32;2235401;79;21345;-84
2022/12/08 00:03:22;;;;;;;24.37;17.17;;;;;;;1.44;95.44;98275.93;2235038;80;20914;-85
2022/12/08 00:09:41;;;;;;;22.27;15.27;;;;;;;1.47;95.85;98285.92;2235226;80;20882;-85
2022/12/08 00:12:41;;;;;;;23.13;15.77;;;;;;;1.53;95.74;98294.28;2235382;80;20930;-83
2022/12/08 00:15:42;;;;;;;20.73;15.07;;;;;;;1.54;95.56;98297.33;2235559;79;20983;-87
2022/12/08 00:18:42;;;;;;;21.20;15.47;;;;;;;1.59;95.45;98294.52;2235641;79;20898;-86
2022/12/08 00:21:43;;;;;;;21.53;14.37;;;;;;;1.62;95.39;98293.76;2235647;79;20886;-86
2022/12/08 00:24:46;;;;;;;22.53;15.40;;;;;;;1.66;95.37;98285.34;2235468;79;20902;-86
2022/12/08 00:27:43;;;;;;;18.50;13.90;;;;;;;1.71;95.32;98293.70;2262279;78;20954;-85
2022/12/08 00:30:44;;;;;;;20.40;13.30;;;;;;;1.78;95.06;98294.84;2280617;78;20895;-85
2022/12/08 00:33:44;;;;;;;18.87;14.00;;;;;;;1.78;94.73;98300.86;2280650;78;20903;-85
2022/12/08 00:36:45;;;;;;;22.20;13.90;;;;;;;1.80;94.74;98297.93;2280411;78;21247;-85
2022/12/08 00:39:45;;;;;;;20.50;14.63;;;;;;;1.78;94.23;98310.27;2280336;78;20918;-86
2022/12/08 00:42:45;;;;;;;18.30;13.70;;;;;;;1.78;94.23;98310.27;2280203;78;20926;-85
2022/12/08 00:45:46;;;;;;;12.83;11.17;;;;;;;1.78;94.35;98306.41;2280399;78;21291;-86
2022/12/08 00:48:46;;;;;;;16.03;11.47;;;;;;;1.74;94.10;98305.42;2280216;78;20899;-85
2022/12/08 00:51:47;;;;;;;15.87;11.13;;;;;;;1.75;96.12;98314.89;2280248;78;20891;-84
2022/12/08 00:54:47;;;;;;;14.30;11.10;;;;;;;1.75;96.12;98314.89;2280484;78;20899;-85
2022/12/08 00:57:47;;;;;;;16.47;11.23;;;;;;;1.89;94.25;98315.00;2280887;78;20950;-84
2022/12/08 01:00:48;;;;;;;17.43;12.73;;;;;;;1.90;93.65;98317.16;2280447;78;20902;-84
2022/12/08 01:03:48;;;;;;;19.27;12.90;;;;;;;1.88;93.56;98322.66;2281093;78;21287;-84
2022/12/08 01:06:49;;;;;;;18.17;12.50;;;;;;;1.86;93.62;98326.88;2280719;78;20953;-84
2022/12/08 01:09:49;;;;;;;17.83;12.13;;;;;;;1.84;93.60;98333.25;2280761;78;20930;-84
2022/12/08 01:12:49;;;;;;;16.10;11.03;;;;;;;1.84;93.67;98326.82;2280632;78;21370;-84
2022/12/08 01:15:52;;;;;;;17.17;10.57;;;;;;;1.85;93.43;98332.44;2280207;78;20884;-84
2022/12/08 01:18:52;;;;;;;19.50;11.73;;;;;;;1.84;93.63;98330.68;2280410;78;20883;-84
2022/12/08 01:21:53;;;;;;;16.00;10.80;;;;;;;1.81;93.79;98330.56;2280492;78;20887;-84
2022/12/08 01:24:53;;;;;;;15.00;10.20;;;;;;;1.81;93.98;98334.42;2280404;78;20918;-84
2022/12/08 01:27:54;;;;;;;13.97;10.50;;;;;;;1.83;94.05;98334.48;2277960;78;20959;-82
2022/12/08 01:30:54;;;;;;;15.10;11.60;;;;;;;1.81;94.18;98330.56;2276541;78;20906;-84
2022/12/08 01:33:54;;;;;;;20.83;10.97;;;;;;;1.78;94.03;98330.45;2276491;78;20863;-83
2022/12/08 01:36:55;;;;;;;18.17;11.60;;;;;;;1.72;94.10;98327.61;2276435;78;20895;-86
2022/12/08 01:39:55;;;;;;;19.00;11.73;;;;;;;1.66;94.22;98329.95;2276556;78;20879;-84
2022/12/08 01:42:56;;;;;;;14.80;11.30;;;;;;;1.55;94.18;98335.97;2276649;78;20931;-84
2022/12/08 01:45:56;;;;;;;15.53;10.60;;;;;;;1.49;94.33;98333.57;2276634;78;20923;-83
2022/12/08 01:48:56;;;;;;;12.93;9.37;;;;;;;1.43;94.56;98335.49;2276811;78;20890;-84
2022/12/08 01:51:57;;;;;;;14.93;10.43;;;;;;;1.38;94.51;98333.56;2276973;78;20883;-85
2022/12/08 01:54:57;;;;;;;15.67;10.13;;;;;;;1.30;94.73;98338.80;2276968;78;20887;-85
2022/12/08 01:57:58;;;;;;;21.50;12.90;;;;;;;1.31;94.85;98333.72;2276624;78;21034;-85
2022/12/08 02:00:58;;;;;;;18.73;12.90;;;;;;;1.27;94.89;98331.44;2276940;78;20898;-84
2022/12/08 02:03:58;;;;;;;19.40;12.13;;;;;;;1.23;94.97;98328.28;2277048;78;20903;-86
2022/12/08 02:06:59;;;;;;;20.90;12.37;;;;;;;1.25;95.35;98334.36;2277037;78;20986;-85
2022/12/08 02:09:59;;;;;;;19.90;13.70;;;;;;;1.27;95.26;98334.42;2276976;78;20903;-85
2022/12/08 02:13:00;;;;;;;17.17;13.07;;;;;;;1.28;95.21;98340.91;2276689;78;20887;-84
2022/12/08 02:16:00;;;;;;;16.23;11.60;;;;;;;1.33;95.32;98335.07;2277151;78;20895;-86
2022/12/08 02:19:05;;;;;;;17.47;12.17;;;;;;;1.33;95.11;98331.21;2277124;78;20895;-85
2022/12/08 02:22:03;;;;;;;16.00;12.23;;;;;;;1.33;95.06;98336.36;2256158;78;20949;-85
2022/12/08 02:25:03;;;;;;;15.40;11.47;;;;;;;1.32;94.89;98331.63;2277585;78;21350;-86
2022/12/08 02:28:04;;;;;;;18.53;12.57;;;;;;;1.31;94.59;98339.27;2278904;78;20970;-85
2022/12/08 02:31:04;;;;;;;19.13;13.60;;;;;;;1.33;94.84;98339.80;2281316;78;20918;-84
2022/12/08 02:34:05;;;;;;;18.70;13.83;;;;;;;1.37;95.01;98346.82;2281214;78;20930;-86
2022/12/08 02:37:05;;;;;;;22.60;15.07;;;;;;;1.41;95.01;98349.11;2280652;78;20903;-84
2022/12/08 02:40:05;;;;;;;21.20;14.50;;;;;;;1.49;95.05;98347.30;2281096;78;20895;-84
2022/12/08 02:43:06;;;;;;;26.57;16.70;;;;;;;1.55;94.95;98347.55;2280891;78;20899;-85
2022/12/08 02:46:06;;;;;;;25.57;17.50;;;;;;;1.60;94.92;98337.44;2280887;78;20910;-84
2022/12/08 02:49:06;;;;;;;29.50;18.67;;;;;;;1.64;94.77;98340.59;2280601;78;20871;-85
2022/12/08 02:52:07;;;;;;;34.53;21.07;;;;;;;1.65;94.61;98329.48;2280618;78;21007;-86
2022/12/08 02:58:09;;;;;;;32.60;21.40;;;;;;;1.65;95.33;98330.77;2241042;79;22956;-83
2022/12/08 03:01:09;;;;;;;34.77;20.97;;;;;;;1.63;94.56;98329.83;2191399;81;20968;-86
2022/12/08 03:04:10;;;;;;;36.97;20.77;;;;;;;1.63;94.37;98333.69;2191591;81;21343;-86
2022/12/08 03:07:10;;;;;;;32.63;21.30;;;;;;;1.64;94.42;98339.72;2191241;81;20933;-86
2022/12/08 03:10:10;;;;;;;30.30;20.60;;;;;;;1.63;94.29;98342.70;2191686;81;20938;-86
2022/12/08 03:13:11;;;;;;;37.00;20.47;;;;;;;1.66;94.20;98341.94;2191728;81;20976;-85
2022/12/08 03:16:11;;;;;;;32.10;22.10;;;;;;;1.69;94.26;98350.66;2191081;81;20979;-85
2022/12/08 03:19:12;;;;;;;34.77;21.43;;;;;;;1.73;94.08;98349.07;2191459;81;20944;-86
2022/12/08 03:22:12;;;;;;;33.00;21.00;;;;;;;1.78;94.02;98352.73;2191331;81;20976;-84
2022/12/08 03:25:12;;;;;;;38.10;21.93;;;;;;;1.83;93.98;98355.95;2191497;81;20975;-83
2022/12/08 03:28:13;;;;;;;35.27;21.40;;;;;;;1.87;93.87;98360.80;2191337;81;20956;-83
2022/12/08 03:31:13;;;;;;;37.47;22.87;;;;;;;1.91;93.85;98366.53;2191188;81;20986;-86
2022/12/08 03:34:14;;;;;;;36.70;21.70;;;;;;;1.94;93.71;98358.05;2191242;81;20990;-85
2022/12/08 03:37:14;;;;;;;37.17;22.70;;;;;;;1.97;93.79;98357.75;2191300;81;21035;-86
2022/12/08 03:40:14;;;;;;;35.90;22.37;;;;;;;2.00;93.74;98352.72;2191044;81;20952;-86
2022/12/08 03:43:17;;;;;;;32.40;21.90;;;;;;;2.02;93.64;98352.78;2191219;81;20940;-86
2022/12/08 03:46:18;;;;;;;36.67;22.43;;;;;;;2.04;93.46;98351.14;2190969;81;21019;-87
2022/12/08 03:49:24;;;;;;;33.70;21.90;;;;;;;2.06;93.41;98350.78;2190610;81;20965;-84
2022/12/08 03:52:25;;;;;;;58.93;33.23;;;;;;;2.07;93.54;98348.68;2191223;81;20959;-85
2022/12/08 03:55:25;;;;;;;33.63;21.13;;;;;;;2.08;93.30;98344.88;2190666;81;20979;-84
2022/12/08 03:58:26;;;;;;;35.13;21.70;;;;;;;2.11;93.37;98344.98;2191491;81;20971;-86
2022/12/08 04:01:26;;;;;;;35.43;22.23;;;;;;;2.15;93.32;98336.55;2191782;81;20944;-86
2022/12/08 04:04:26;;;;;;;34.13;20.70;;;;;;;2.17;93.21;98336.20;2191361;81;20964;-82
2022/12/08 04:07:27;;;;;;;37.23;21.87;;;;;;;2.16;93.09;98342.17;2191067;81;21327;-87
2022/12/08 04:10:27;;;;;;;31.40;19.73;;;;;;;2.17;93.07;98340.47;2190476;81;20988;-82
2022/12/08 04:13:28;;;;;;;35.07;20.67;;;;;;;2.15;92.92;98338.25;2190911;81;20968;-85
2022/12/08 04:16:28;;;;;;;35.87;20.50;;;;;;;2.13;92.94;98343.75;2190370;81;21335;-87
2022/12/08 04:19:28;;;;;;;31.33;19.47;;;;;;;2.18;93.10;98339.23;2190575;81;20924;-84
2022/12/08 04:22:29;;;;;;;33.40;21.40;;;;;;;2.18;92.89;98336.66;2190429;81;20984;-85
2022/12/08 04:25:29;;;;;;;31.43;19.20;;;;;;;2.20;92.86;98339.30;2190429;81;20947;-83
2022/12/08 04:28:30;;;;;;;32.00;20.40;;;;;;;2.18;92.69;98346.09;2190384;81;21380;-83
2022/12/08 04:31:30;;;;;;;32.57;19.83;;;;;;;2.14;92.91;98340.36;2190470;81;20944;-82
2022/12/08 04:34:30;;;;;;;31.30;19.00;;;;;;;2.18;92.95;98342.23;2190829;81;20924;-83
2022/12/08 04:37:31;;;;;;;31.27;18.27;;;;;;;2.20;94.63;98336.31;2189313;81;21466;-82
2022/12/08 04:40:32;;;;;;;31.43;18.20;;;;;;;2.42;93.56;98340.95;2188315;81;20991;-82
2022/12/08 04:43:32;;;;;;;28.03;19.00;;;;;;;2.40;92.91;98338.31;2187875;81;21230;-78
2022/12/08 04:46:33;;;;;;;30.97;18.80;;;;;;;2.35;92.74;98335.98;2189219;81;21063;-82
2022/12/08 04:49:33;;;;;;;32.47;19.73;;;;;;;2.33;92.58;98341.49;2189289;81;21050;-81
2022/12/08 04:52:34;;;;;;;27.13;19.13;;;;;;;2.25;92.65;98340.34;2189655;81;20968;-82
2022/12/08 04:55:34;;;;;;;29.10;18.50;;;;;;;2.20;92.86;98338.01;2188285;81;20967;-82
2022/12/08 04:58:34;;;;;;;29.30;18.90;;;;;;;2.19;93.04;98338.83;2188290;81;22050;-82
2022/12/08 05:01:35;;;;;;;36.33;20.23;;;;;;;2.17;93.04;98341.34;2188891;81;21011;-83
2022/12/08 05:04:35;;;;;;;30.53;19.83;;;;;;;2.13;93.20;98337.32;2189778;81;21015;-83
2022/12/08 05:07:36;;;;;;;30.77;20.03;;;;;;;2.11;93.34;98334.69;2189534;81;21391;-82
2022/12/08 05:10:36;;;;;;;31.17;18.93;;;;;;;2.17;93.48;98340.47;2189880;81;20948;-82
2022/12/08 05:13:36;;;;;;;33.43;20.30;;;;;;;2.18;93.53;98337.08;2189270;81;20996;-83
2022/12/08 05:16:37;;;;;;;27.60;19.03;;;;;;;2.18;93.48;98331.92;2187627;81;21331;-82
2022/12/08 05:19:37;;;;;;;33.30;20.23;;;;;;;2.19;93.62;98337.55;2187824;81;21038;-84
2022/12/08 05:22:37;;;;;;;32.27;20.00;;;;;;;2.13;93.56;98335.62;2187755;81;20960;-84
2022/12/08 05:25:38;;;;;;;30.37;18.43;;;;;;;2.09;93.62;98330.30;2187600;81;21028;-82
2022/12/08 05:28:38;;;;;;;31.67;20.57;;;;;;;2.02;93.59;98330.90;2187210;81;20996;-82
2022/12/08 05:31:39;;;;;;;35.13;19.23;;;;;;;1.93;93.69;98331.44;2187650;81;20995;-82
2022/12/08 05:34:39;;;;;;;30.27;20.10;;;;;;;1.89;93.92;98332.14;2187216;81;20971;-80
2022/12/08 05:37:40;;;;;;;29.67;20.83;;;;;;;1.83;93.98;98335.36;2187273;81;20995;-82
2022/12/08 05:40:40;;;;;;;29.80;20.23;;;;;;;1.78;94.17;98335.59;2188127;81;21426;-81
2022/12/08 05:43:40;;;;;;;26.50;19.03;;;;;;;1.75;94.20;98342.33;2187204;81;21454;-82
2022/12/08 05:46:41;;;;;;;54.40;35.27;;;;;;;1.69;94.32;98346.80;2187803;81;20909;-81
2022/12/08 05:49:41;;;;;;;53.33;28.33;;;;;;;1.63;94.42;98345.67;2187789;81;20960;-81
2022/12/08 05:52:43;;;;;;;42.97;26.47;;;;;;;1.57;94.51;98349.77;2186839;81;21042;-84
2022/12/08 05:55:45;;;;;;;39.50;23.07;;;;;;;1.53;94.40;98347.02;2171587;81;21039;-83
2022/12/08 05:58:45;;;;;;;32.50;22.43;;;;;;;1.50;95.95;98343.91;2172506;81;21559;-82
2022/12/08 06:01:46;;;;;;;33.47;20.37;;;;;;;1.53;94.26;98343.16;2171382;81;21000;-81
2022/12/08 06:04:46;;;;;;;29.23;19.83;;;;;;;1.41;93.84;98340.98;2171476;81;21050;-82
2022/12/08 06:07:47;;;;;;;44.67;23.37;;;;;;;1.28;93.49;98343.89;2171576;81;21024;-83
2022/12/08 06:10:47;;;;;;;34.00;22.63;;;;;;;4.57;100.00;98344.83;2171121;81;20952;-83
2022/12/08 06:13:48;;;;;;;39.23;23.10;;;;;;;8.01;100.00;98344.77;2171763;81;20996;-83
2022/12/08 06:16:50;;;;;;;32.10;21.63;;;;;;;10.48;100.00;98340.66;2170596;81;21370;-85
2022/12/08 06:19:51;;;;;;;42.17;25.50;;;;;;;12.05;100.00;98328.67;2171095;81;21047;-85
2022/12/08 06:22:51;;;;;;;38.00;26.77;;;;;;;13.21;95.20;98328.67;2171535;81;20953;-85
2022/12/08 06:25:52;;;;;;;37.83;26.53;;;;;;;14.12;87.00;98334.46;2171283;81;20973;-85
2022/12/08 06:28:53;;;;;;;31.90;21.33;;;;;;;14.78;84.37;98335.06;2170243;82;21066;-81
2022/12/08 06:31:54;;;;;;;37.63;23.30;;;;;;;15.28;76.24;98332.59;2170572;81;21230;-82
2022/12/08 06:34:54;;;;;;;34.17;23.87;;;;;;;15.21;72.50;98340.14;2170326;81;21052;-81
2022/12/08 06:37:55;;;;;;;31.70;20.73;;;;;;;14.83;68.40;98335.88;2169463;81;21039;-81
2022/12/08 06:40:55;;;;;;;34.90;23.57;;;;;;;14.50;62.39;98338.45;2170793;81;20980;-83
2022/12/08 06:43:56;;;;;;;36.42;23.92;;;;;;;14.29;63.91;98343.02;2170482;81;21035;-83
2022/12/08 06:46:56;;;;;;;31.37;24.18;;;;;;;14.09;64.07;98346.75;2170687;81;20941;-82
2022/12/08 06:49:56;;;;;;;37.53;24.27;;;;;;;13.92;63.30;98353.47;2169803;81;21270;-82
2022/12/08 06:52:57;;;;;;;33.18;24.77;;;;;;;13.79;62.32;98353.12;2169784;81;21027;-84
2022/12/08 06:55:57;;;;;;;35.00;23.22;;;;;;;13.66;62.15;98351.05;2169829;81;21023;-82
2022/12/08 06:58:59;;;;;;;30.23;22.70;;;;;;;13.55;58.76;98351.13;2170459;81;21103;-83
2022/12/08 07:01:59;;;;;;;34.25;21.60;;;;;;;13.44;59.81;98346.85;2170153;81;21008;-83
2022/12/08 07:05:00;;;;;;;36.40;24.07;;;;;;;13.35;58.37;98353.03;2171093;81;20988;-84
2022/12/08 07:08:00;;;;;;;35.43;26.30;;;;;;;13.23;57.60;98353.98;2170301;81;20992;-82
2022/12/08 07:11:03;;;;;;;32.60;24.47;;;;;;;13.11;56.66;98355.34;2169560;81;21036;-83
2022/12/08 07:14:04;;;;;;;42.00;26.97;;;;;;;13.08;58.06;98354.92;2169662;81;20921;-83
2022/12/08 07:17:04;;;;;;;42.47;28.80;;;;;;;13.06;58.64;98352.75;2169361;82;21023;-85
2022/12/08 07:20:06;;;;;;;34.83;24.73;;;;;;;13.05;59.06;98350.14;2169395;82;21003;-84
2022/12/08 07:23:13;;;;;;;33.73;24.90;;;;;;;13.02;59.53;98354.09;2169648;82;21000;-83
2022/12/08 07:26:14;;;;;;;43.93;28.60;;;;;;;12.99;59.82;98356.69;2169434;81;21296;-83
2022/12/08 07:29:15;;;;;;;44.43;28.20;;;;;;;12.88;59.44;98354.13;2170601;81;21003;-84
2022/12/08 07:32:17;;;;;;;34.93;25.23;;;;;;;12.90;59.68;98356.73;2160579;82;21055;-84
2022/12/08 07:35:17;;;;;;;46.73;33.07;;;;;;;12.28;54.13;98361.78;2171563;81;21031;-82
2022/12/08 07:38:18;;;;;;;39.67;30.70;;;;;;;9.86;54.14;98368.50;2171931;81;20991;-81
2022/12/08 07:41:18;;;;;;;39.97;29.20;;;;;;;8.02;56.59;98375.53;2171920;81;20972;-80
2022/12/08 07:44:19;;;;;;;32.13;21.43;;;;;;;6.75;59.17;98382.41;2170127;81;21047;-81
2022/12/08 07:47:19;;;;;;;34.93;21.20;;;;;;;5.65;61.48;98382.56;2169989;81;21007;-82
2022/12/08 07:50:19;;;;;;;31.67;21.40;;;;;;;4.82;64.43;98397.20;2170193;81;21071;-83
2022/12/08 07:53:20;;;;;;;31.93;21.30;;;;;;;4.22;66.04;98394.61;2170440;81;21656;-82
2022/12/08 07:56:20;;;;;;;32.93;22.30;;;;;;;3.77;68.78;98386.80;2170418;81;21026;-83
2022/12/08 07:59:21;;;;;;;28.40;21.00;;;;;;;3.44;69.99;98396.91;2169357;81;21059;-83
2022/12/08 08:02:21;;;;;;;28.30;20.20;;;;;;;3.28;71.50;98397.64;2170623;81;21362;-84
2022/12/08 08:05:21;;;;;;;30.27;21.13;;;;;;;3.20;72.86;98393.10;2169875;81;20992;-81
2022/12/08 08:08:22;;;;;;;33.13;21.63;;;;;;;3.22;73.32;98387.12;2169731;81;21020;-82
2022/12/08 08:11:22;;;;;;;28.13;19.47;;;;;;;3.21;74.17;98391.40;2169948;81;20981;-82
2022/12/08 08:14:23;;;;;;;28.30;19.63;;;;;;;3.24;75.37;98390.63;2169934;81;20980;-83
2022/12/08 08:17:23;;;;;;;29.90;19.17;;;;;;;3.13;76.27;98390.27;2169852;81;21070;-83
2022/12/08 08:20:24;;;;;;;29.87;18.87;;;;;;;3.07;76.63;98401.66;2169437;81;20972;-83
2022/12/08 08:23:24;;;;;;;32.40;20.37;;;;;;;3.03;77.79;98398.52;2169266;81;21035;-81
2022/12/08 08:26:24;;;;;;;31.00;19.90;;;;;;;2.98;77.42;98400.94;2169293;81;20925;-82
2022/12/08 08:29:25;;;;;;;30.13;20.03;;;;;;;2.99;77.71;98405.27;2169360;81;21480;-81
2022/12/08 08:32:25;;;;;;;31.70;20.83;;;;;;;3.02;78.22;98397.64;2169480;81;20999;-82
2022/12/08 08:35:26;;;;;;;35.13;19.80;;;;;;;3.07;78.53;98396.51;2169448;81;21037;-80
2022/12/08 08:38:30;;;;;;;29.03;19.90;;;;;;;3.19;78.25;98393.92;2166856;81;21468;-80
2022/12/08 08:41:34;;;;;;;29.27;19.83;;;;;;;3.42;78.41;98389.94;2169512;81;20964;-81
2022/12/08 08:44:32;;;;;;;27.23;19.93;;;;;;;3.57;78.26;98395.63;2158970;82;21000;-82
2022/12/08 08:47:32;;;;;;;28.00;18.87;;;;;;;3.62;78.35;98400.52;2170236;81;21743;-82
2022/12/08 08:50:32;;;;;;;31.23;19.70;;;;;;;3.59;77.98;98393.97;2169967;81;21337;-82
2022/12/08 08:53:33;;;;;;;26.80;19.37;;;;;;;3.52;77.80;98397.19;2169958;81;20945;-82
2022/12/08 08:56:33;;;;;;;23.77;17.90;;;;;;;3.44;78.40;98389.58;2170062;81;21008;-81
2022/12/08 08:59:34;;;;;;;29.30;18.87;;;;;;;3.44;78.57;98382.71;2185930;81;21833;-82
2022/12/08 09:02:34;;;;;;;27.23;18.03;;;;;;;3.49;78.77;98385.06;2186728;81;20992;-83
2022/12/08 09:05:35;;;;;;;26.30;17.20;;;;;;;3.50;78.75;98384.23;2185898;81;21604;-82
2022/12/08 09:08:35;;;;;;;26.93;18.20;;;;;;;3.57;78.73;98389.17;2186080;81;20992;-83
2022/12/08 09:11:35;;;;;;;28.03;18.87;;;;;;;3.59;78.79;98387.52;2186725;81;21003;-82
2022/12/08 09:14:36;;;;;;;28.17;18.73;;;;;;;3.59;78.74;98387.52;2186336;81;20979;-82
2022/12/08 09:17:37;;;;;;;24.90;18.30;;;;;;;3.58;78.66;98383.19;2186291;81;21386;-82
2022/12/08 09:20:37;;;;;;;26.30;17.70;;;;;;;3.56;78.72;98376.22;2187003;81;21039;-81
2022/12/08 09:23:37;;;;;;;44.53;18.00;;;;;;;3.64;79.03;98373.47;2186804;81;21457;-83
2022/12/08 09:26:38;;;;;;;39.30;18.33;;;;;;;3.95;85.70;98365.84;2186521;81;21356;-81
2022/12/08 09:29:38;;;;;;;24.83;17.50;;;;;;;5.80;85.19;98361.32;2185904;81;21514;-81
2022/12/08 09:32:38;;;;;;;24.60;16.03;;;;;;;5.66;76.94;98361.00;2186152;81;21003;-80
2022/12/08 09:35:39;;;;;;;22.93;16.73;;;;;;;5.20;76.30;98363.28;2186559;81;21079;-80
2022/12/08 09:38:39;;;;;;;23.67;14.97;;;;;;;4.89;76.33;98359.91;2186110;81;21419;-79
2022/12/08 09:41:40;;;;;;;19.87;14.87;;;;;;;4.73;76.46;98362.50;2186207;81;20940;-80
2022/12/08 09:44:40;;;;;;;18.43;13.53;;;;;;;4.53;76.21;98361.50;2186193;81;21075;-80
2022/12/08 09:47:43;;;;;;;21.20;15.73;;;;;;;4.36;76.44;98353.28;2186103;81;20932;-80
2022/12/08 09:50:44;;;;;;;19.77;14.90;;;;;;;4.32;77.44;98350.99;2186866;81;20932;-81
2022/12/08 09:53:44;;;;;;;22.87;14.20;;;;;;;4.35;77.18;98351.53;2187521;81;20968;-80
2022/12/08 09:56:44;;;;;;;23.70;15.13;;;;;;;4.33;77.17;98352.75;2186599;81;21090;-80
2022/12/08 09:59:45;;;;;;;19.60;14.40;;;;;;;4.28;77.34;98345.28;2185889;81;21054;-81
2022/12/08 10:02:45;;;;;;;18.47;13.73;;;;;;;4.27;77.29;98343.94;2185879;81;21907;-80
2022/12/08 10:05:46;;;;;;;23.53;13.57;;;;;;;4.26;77.21;98343.06;2185994;81;21448;-80
2022/12/08 10:08:46;;;;;;;20.40;14.30;;;;;;;4.30;77.33;98342.32;2185920;81;20963;-79
2022/12/08 10:11:46;;;;;;;19.00;13.20;;;;;;;4.36;77.06;98337.36;2185659;81;20995;-79
2022/12/08 10:14:47;;;;;;;17.73;13.27;;;;;;;4.49;77.35;98338.58;2186318;81;21420;-80
2022/12/08 10:17:47;;;;;;;16.10;11.87;;;;;;;4.65;76.24;98326.94;2187179;81;21077;-80
2022/12/08 10:20:48;;;;;;;16.50;12.07;;;;;;;4.73;74.47;98318.97;2186675;81;20959;-80
2022/12/08 10:23:48;;;;;;;16.20;11.20;;;;;;;4.84;75.17;98323.13;2186340;81;21038;-80
2022/12/08 10:26:48;;;;;;;19.07;12.77;;;;;;;4.94;74.67;98320.81;2186579;81;20936;-81
2022/12/08 10:29:49;;;;;;;17.63;12.30;;;;;;;5.07;75.19;98315.53;2185727;81;21760;-80
2022/12/08 10:32:49;;;;;;;16.20;10.93;;;;;;;5.16;73.62;98314.88;2185877;81;20955;-79
2022/12/08 10:35:50;;;;;;;18.13;11.63;;;;;;;5.09;72.75;98311.27;2186082;81;20995;-80
2022/12/08 10:38:50;;;;;;;14.13;10.40;;;;;;;5.11;73.78;98318.66;2186504;81;21392;-81
2022/12/08 10:41:50;;;;;;;14.40;11.27;;;;;;;5.00;73.16;98314.50;2185978;81;20955;-79
2022/12/08 10:44:51;;;;;;;14.70;11.60;;;;;;;4.98;72.12;98310.13;2186886;81;20949;-80
2022/12/08 10:47:51;;;;;;;14.70;10.40;;;;;;;4.99;72.66;98306.29;2185986;81;21336;-80
2022/12/08 10:50:52;;;;;;;15.63;10.70;;;;;;;4.94;72.12;98308.30;2186445;81;21008;-82
2022/12/08 10:53:52;;;;;;;14.60;10.53;;;;;;;4.92;71.25;98301.80;2186498;81;20972;-80
2022/12/08 10:56:53;;;;;;;13.70;9.87;;;;;;;4.96;71.88;98297.58;2186217;81;20964;-80
2022/12/08 10:59:53;;;;;;;12.23;10.50;;;;;;;5.02;72.32;98294.73;2170777;81;21514;-80
2022/12/08 11:02:53;;;;;;;14.07;10.40;;;;;;;5.14;72.30;98287.69;2170162;81;20933;-78
2022/12/08 11:05:54;;;;;;;14.70;10.33;;;;;;;5.18;71.20;98283.45;2169178;81;21035;-81
2022/12/08 11:08:54;;;;;;;13.27;10.17;;;;;;;5.09;70.73;98277.64;2169708;81;21032;-80
2022/12/08 11:11:55;;;;;;;15.03;12.07;;;;;;;5.02;71.42;98274.45;2170311;82;20929;-78
2022/12/08 11:14:55;;;;;;;19.87;15.00;;;;;;;5.06;72.26;98279.73;2168436;81;21036;-78
2022/12/08 11:17:55;;;;;;;18.70;13.60;;;;;;;5.26;72.85;98277.66;2169123;81;21273;-79
2022/12/08 11:20:56;;;;;;;19.63;15.23;;;;;;;5.40;72.60;98274.09;2168624;81;21066;-80
2022/12/08 11:23:56;;;;;;;18.93;12.63;;;;;;;5.50;72.27;98278.64;2169537;81;20952;-79
2022/12/08 11:26:57;;;;;;;17.83;12.43;;;;;;;5.60;71.37;98272.83;2167033;81;22015;-82
2022/12/08 11:29:57;;;;;;;15.70;12.43;;;;;;;5.61;71.49;98275.88;2169130;81;21091;-80
2022/12/08 11:32:58;;;;;;;22.30;14.40;;;;;;;5.48;70.46;98279.45;2169530;81;21016;-79
2022/12/08 11:35:58;;;;;;;19.27;13.03;;;;;;;5.35;71.24;98285.64;2169951;82;21027;-80
2022/12/08 11:38:58;;;;;;;58.23;18.60;;;;;;;5.27;71.25;98277.23;2170206;81;21132;-81
2022/12/08 11:41:59;;;;;;;25.97;14.47;;;;;;;5.21;71.92;98277.09;2170264;81;21742;-82
2022/12/08 11:44:59;;;;;;;23.73;15.23;;;;;;;5.19;72.21;98274.86;2170273;81;20971;-83
2022/12/08 11:48:00;;;;;;;22.57;14.43;;;;;;;5.17;72.07;98275.23;2170755;81;20968;-76
2022/12/08 11:51:00;;;;;;;21.43;14.50;;;;;;;5.17;72.41;98275.23;2170287;81;20925;-82
2022/12/08 11:54:01;;;;;;;24.00;15.17;;;;;;;5.13;72.43;98280.34;2170071;81;20984;-81
2022/12/08 11:57:01;;;;;;;26.47;15.67;;;;;;;5.14;73.21;98269.57;2169690;81;21475;-81
2022/12/08 12:00:02;;;;;;;21.17;16.00;;;;;;;5.13;72.75;98273.88;2169256;81;21059;-81
2022/12/08 12:03:02;;;;;;;23.10;15.63;;;;;;;5.09;72.93;98276.34;2170072;81;20977;-81
2022/12/08 12:06:02;;;;;;;21.60;16.43;;;;;;;4.99;72.96;98275.25;2169408;81;20999;-81
2022/12/08 12:09:03;;;;;;;26.50;17.03;;;;;;;4.93;73.60;98275.09;2169788;81;20976;-84
2022/12/08 12:12:13;;;;;;;27.30;16.90;;;;;;;4.93;73.60;98273.80;2170227;81;21462;-81
2022/12/08 12:15:13;;;;;;;26.83;17.50;;;;;;;4.89;73.32;98284.04;2167602;81;21327;-82
2022/12/08 12:18:13;;;;;;;29.87;17.60;;;;;;;4.78;73.68;98274.72;2169921;81;21032;-82
2022/12/08 12:21:15;;;;;;;29.90;16.50;;;;;;;4.76;74.04;98275.97;2170354;81;21036;-83
2022/12/08 12:24:14;;;;;;;26.27;17.20;;;;;;;4.68;74.13;98263.27;2169985;81;20960;-81
2022/12/08 12:27:15;;;;;;;30.83;18.47;;;;;;;4.62;74.19;98264.40;2170235;81;20944;-80
2022/12/08 12:30:15;;;;;;;26.83;16.87;;;;;;;4.59;74.62;98266.03;2169908;81;21032;-81
2022/12/08 12:33:17;;;;;;;27.40;17.03;;;;;;;4.56;74.90;98258.20;2169936;81;21004;-82
2022/12/08 12:36:16;;;;;;;25.93;16.70;;;;;;;4.52;74.82;98263.70;2170415;82;21024;-81
2022/12/08 12:39:16;;;;;;;30.13;17.00;;;;;;;4.44;75.05;98254.87;2170682;81;20958;-82
2022/12/08 12:42:17;;;;;;;33.47;18.00;;;;;;;4.53;77.86;98254.23;2169822;81;21445;-82
2022/12/08 12:45:20;;;;;;;30.83;18.97;;;;;;;4.66;75.66;98255.02;2170107;82;21004;-81
2022/12/08 12:48:18;;;;;;;28.57;17.30;;;;;;;4.54;75.75;98248.23;2170494;81;20933;-83
2022/12/08 12:51:18;;;;;;;41.13;18.27;;;;;;;4.46;76.08;98246.75;2170470;81;21276;-82
2022/12/08 12:54:18;;;;;;;27.87;17.03;;;;;;;4.38;76.37;98238.79;2170277;81;20984;-81
2022/12/08 12:57:19;;;;;;;34.00;18.47;;;;;;;4.32;76.12;98237.72;2170425;81;21000;-81
2022/12/08 13:00:19;;;;;;;27.77;17.70;;;;;;;4.25;76.52;98239.27;2184835;81;21062;-82
2022/12/08 13:03:20;;;;;;;29.53;18.07;;;;;;;4.18;76.45;98232.19;2187399;81;20916;-83
2022/12/08 13:06:20;;;;;;;26.83;17.47;;;;;;;4.12;76.80;98232.89;2187045;81;20957;-82
2022/12/08 13:09:20;;;;;;;29.23;17.50;;;;;;;4.07;76.96;98238.77;2186356;81;20948;-77
2022/12/08 13:12:21;;;;;;;25.77;17.43;;;;;;;4.03;76.97;98234.35;2184259;81;21404;-82
2022/12/08 13:15:21;;;;;;;28.20;16.13;;;;;;;3.98;77.01;98232.06;2185721;81;20992;-80
2022/12/08 13:18:22;;;;;;;22.37;14.57;;;;;;;3.93;76.76;98234.93;2186080;81;21140;-82
2022/12/08 13:21:22;;;;;;;22.60;14.77;;;;;;;3.86;76.15;98229.13;2186243;81;20948;-79
2022/12/08 13:24:22;;;;;;;24.80;14.87;;;;;;;3.80;76.29;98232.00;2185841;81;21011;-79
2022/12/08 13:27:23;;;;;;;29.17;18.40;;;;;;;3.79;76.53;98230.67;2185715;81;21701;-82
2022/12/08 13:30:23;;;;;;;24.40;14.63;;;;;;;3.75;76.99;98233.58;2185626;81;21026;-83
2022/12/08 13:33:24;;;;;;;23.90;16.17;;;;;;;3.73;76.93;98230.08;2185576;81;20946;-82
2022/12/08 13:36:24;;;;;;;21.17;14.73;;;;;;;3.70;76.95;98232.57;2185447;81;21007;-81
2022/12/08 13:39:25;;;;;;;22.53;14.17;;;;;;;3.66;77.08;98229.44;2185674;81;20992;-81
2022/12/08 13:42:25;;;;;;;25.20;13.70;;;;;;;3.61;77.09;98229.72;2186336;81;20988;-80
2022/12/08 13:45:25;;;;;;;21.03;13.53;;;;;;;3.60;76.94;98229.27;2186702;81;20996;-81
2022/12/08 13:48:26;;;;;;;27.40;16.73;;;;;;;3.58;76.69;98227.47;2186468;81;21011;-82
2022/12/08 13:51:27;;;;;;;22.17;12.83;;;;;;;3.56;77.07;98231.70;2186641;81;21000;-83
2022/12/08 13:54:29;;;;;;;20.97;13.73;;;;;;;3.49;76.93;98227.66;2187124;81;21015;-84
2022/12/08 13:57:30;;;;;;;19.80;12.23;;;;;;;3.50;76.79;98234.98;2187485;81;21520;-82
2022/12/08 14:00:30;;;;;;;23.27;14.07;;;;;;;3.49;76.46;98233.23;2173702;81;21102;-84
2022/12/08 14:03:31;;;;;;;22.47;14.00;;;;;;;3.45;76.72;98232.23;2170608;81;21016;-82